32NE weather

Mc Ginn Ranch Airport
Dunning, Nebraska, United States

Public forecast

Using degrees Fahrenheit for public forecast. Weather courtesy of forecast.io.

Closest aviation weather report (METAR) to Mc Ginn Ranch Airport

Closest report is Thomas County Airport, 25.9 nm (48.0 km) NW. Retrieved 2019/10/17 16:35 UTC (19 minutes ago):

KTIF 171635Z AUTO 16003KT 10SM CLR 19/02 A2979 RMK AO2 T01940016

Closest aviation forecast (TAF) to Mc Ginn Ranch Airport

Closest forecast is North Platte Regional Airport Lee Bird Field, 44.7 nm (82.7 km) SW. Retrieved 2019/10/17 12:24 UTC (5 hours ago):

TAF KLBF 171122Z 1712/1812 00000KT P6SM FEW250 FM171700 17010KT P6SM FEW250 FM172000 14012G19KT P6SM SCT250 FM180000 14010KT P6SM SCT250 FM180500 12006KT P6SM FEW250